Time;durP1;ratioP1;P1;durP2;ratioP2;P2;SDS_P1;SDS_P2;PMS_P1;PMS_P2;Temp;Humidity;BMP_temperature;BMP_pressure;BME280_temperature;BME280_humidity;BME280_pressure;Samples;Min_cycle;Max_cycle;Signal;HPM_P1;HPM_P2
2022/01/02 00:02:15;;;;;;;17.27;11.43;;;8.00;99.90;;;;;;10393281;28;20226;-74
2022/01/02 00:07:17;;;;;;;17.57;11.83;;;8.10;99.90;;;;;;10385566;28;20248;-75
2022/01/02 00:12:22;;;;;;;16.47;11.97;;;8.10;99.90;;;;;;10406261;28;20307;-75
2022/01/02 00:17:23;;;;;;;20.73;12.23;;;8.00;99.90;;;;;;10397967;28;20284;-75
2022/01/02 00:22:48;;;;;;;14.93;11.07;;;8.00;99.90;;;;;;10412878;28;20284;-75
2022/01/02 00:27:50;;;;;;;14.33;10.63;;;8.00;99.90;;;;;;10391882;28;20480;-75
2022/01/02 00:32:51;;;;;;;16.83;11.63;;;7.90;99.90;;;;;;10393824;28;20443;-75
2022/01/02 00:37:52;;;;;;;15.53;11.37;;;7.90;99.90;;;;;;10395289;28;20237;-75
2022/01/02 00:43:02;;;;;;;19.63;12.33;;;8.00;99.90;;;;;;10393004;28;20229;-75
2022/01/02 00:48:18;;;;;;;17.40;10.93;;;8.00;99.90;;;;;;10397431;28;20784;-75
2022/01/02 00:53:23;;;;;;;16.70;11.43;;;8.10;99.90;;;;;;10388374;28;20721;-75
2022/01/02 00:58:48;;;;;;;16.10;11.20;;;8.20;99.90;;;;;;10388258;28;20568;-74
2022/01/02 01:03:52;;;;;;;14.57;10.17;;;8.10;99.90;;;;;;10381161;28;20268;-74
2022/01/02 01:08:57;;;;;;;14.30;10.60;;;7.90;99.90;;;;;;10381738;28;20282;-74
2022/01/02 01:13:59;;;;;;;14.73;11.03;;;7.80;99.90;;;;;;10400416;28;20278;-74
2022/01/02 01:19:02;;;;;;;14.50;10.47;;;7.60;99.90;;;;;;10388714;28;20255;-74
2022/01/02 01:24:02;;;;;;;16.83;11.77;;;7.50;99.90;;;;;;10380428;28;20217;-73
2022/01/02 01:29:03;;;;;;;17.50;12.10;;;7.40;99.90;;;;;;10382318;28;20232;-75
2022/01/02 01:34:03;;;;;;;16.87;12.37;;;7.30;99.90;;;;;;10374605;28;20633;-75
2022/01/02 01:39:04;;;;;;;15.67;11.87;;;7.20;99.90;;;;;;10385473;28;20239;-74
2022/01/02 01:49:19;;;;;;;19.03;13.40;;;7.20;99.90;;;;;;10401386;28;20224;-75
2022/01/02 01:54:20;;;;;;;18.57;13.00;;;7.20;99.90;;;;;;10403126;28;20217;-74
2022/01/02 01:59:21;;;;;;;17.37;11.90;;;7.30;99.90;;;;;;10394461;28;20880;-74
2022/01/02 02:04:22;;;;;;;18.40;12.43;;;7.30;99.90;;;;;;10401248;28;20227;-74
2022/01/02 02:09:27;;;;;;;18.63;12.13;;;7.30;99.90;;;;;;10386699;28;20226;-74
2022/01/02 02:14:28;;;;;;;18.07;12.50;;;7.30;99.90;;;;;;10396871;28;20248;-75
2022/01/02 02:19:28;;;;;;;18.53;12.33;;;7.30;99.90;;;;;;10387673;28;20350;-75
2022/01/02 02:24:29;;;;;;;17.03;12.50;;;7.40;99.90;;;;;;10395269;28;20225;-73
2022/01/02 02:29:29;;;;;;;18.63;12.70;;;7.50;99.90;;;;;;10389393;28;20228;-73
2022/01/02 02:34:30;;;;;;;19.23;12.87;;;7.50;99.90;;;;;;10399138;28;20243;-75
2022/01/02 02:39:33;;;;;;;18.43;12.50;;;7.60;99.90;;;;;;10380477;28;20759;-75
2022/01/02 02:44:37;;;;;;;17.20;12.30;;;7.70;99.90;;;;;;10388906;28;20224;-74
2022/01/02 02:49:39;;;;;;;19.90;12.80;;;7.70;99.90;;;;;;10396340;28;20220;-75
2022/01/02 02:54:42;;;;;;;20.03;13.23;;;7.80;99.90;;;;;;10392012;28;20270;-73
2022/01/02 02:59:42;;;;;;;20.73;13.10;;;7.80;99.90;;;;;;10393886;28;20240;-74
2022/01/02 03:04:43;;;;;;;23.90;15.00;;;7.90;99.90;;;;;;10394071;28;20312;-75
2022/01/02 03:09:49;;;;;;;20.83;13.93;;;7.90;99.90;;;;;;10400562;28;20245;-74
2022/01/02 03:14:49;;;;;;;20.80;14.03;;;7.90;99.90;;;;;;10391683;28;20236;-75
2022/01/02 03:19:50;;;;;;;19.90;12.73;;;7.90;99.90;;;;;;10397456;28;20743;-74
2022/01/02 03:24:52;;;;;;;21.53;12.37;;;7.90;99.90;;;;;;10387190;28;20221;-76
2022/01/02 03:29:52;;;;;;;20.50;12.60;;;7.80;99.90;;;;;;10397716;28;20283;-74
2022/01/02 03:34:53;;;;;;;17.17;12.50;;;7.80;99.90;;;;;;10387070;28;20217;-74
2022/01/02 03:39:54;;;;;;;19.40;13.00;;;7.80;99.90;;;;;;10389072;28;20220;-75
2022/01/02 03:44:57;;;;;;;20.40;15.07;;;7.80;99.90;;;;;;10399511;28;20216;-75
2022/01/02 03:49:58;;;;;;;21.40;14.50;;;7.80;99.90;;;;;;10390846;28;20268;-76
2022/01/02 03:54:58;;;;;;;19.67;13.63;;;7.90;99.90;;;;;;10394690;28;20323;-75
2022/01/02 03:59:59;;;;;;;19.53;13.37;;;8.00;99.90;;;;;;10394272;28;20275;-74
2022/01/02 04:05:00;;;;;;;19.80;13.40;;;8.10;99.90;;;;;;10392630;28;20920;-75
2022/01/02 04:10:05;;;;;;;20.07;13.97;;;8.10;99.90;;;;;;10375740;28;20222;-75
2022/01/02 04:15:07;;;;;;;19.40;13.03;;;8.10;99.90;;;;;;10436996;28;20251;-75
2022/01/02 04:20:10;;;;;;;20.63;12.90;;;8.00;99.90;;;;;;10432617;28;20220;-76
2022/01/02 04:25:12;;;;;;;17.47;12.70;;;7.90;99.90;;;;;;10429092;28;20210;-75
2022/01/02 04:30:13;;;;;;;17.50;12.63;;;7.80;99.90;;;;;;10390241;28;20285;-76
2022/01/02 04:35:13;;;;;;;16.23;12.27;;;7.80;99.90;;;;;;10390731;28;20189;-75
2022/01/02 04:40:14;;;;;;;19.37;12.47;;;7.80;99.90;;;;;;10379826;28;20582;-74
2022/01/02 04:45:15;;;;;;;20.40;13.17;;;7.80;99.90;;;;;;10395678;28;20749;-76
2022/01/02 04:50:15;;;;;;;17.83;12.33;;;7.80;99.90;;;;;;10390147;28;20186;-75
2022/01/02 04:55:16;;;;;;;24.67;14.73;;;7.80;99.90;;;;;;10397725;28;20194;-74
2022/01/02 05:00:17;;;;;;;18.27;13.57;;;7.80;99.90;;;;;;10392314;28;20221;-74
2022/01/02 05:05:20;;;;;;;20.17;13.50;;;7.90;99.90;;;;;;10384259;28;20195;-75
2022/01/02 05:10:21;;;;;;;17.57;13.00;;;7.90;99.90;;;;;;10394568;28;20191;-75
2022/01/02 05:15:22;;;;;;;18.33;13.10;;;8.00;99.90;;;;;;10394140;28;20658;-75
2022/01/02 05:20:22;;;;;;;19.97;14.37;;;8.00;99.90;;;;;;10385481;28;20317;-75
2022/01/02 05:25:23;;;;;;;20.60;12.90;;;8.00;99.90;;;;;;10379564;28;20232;-75
2022/01/02 05:30:23;;;;;;;15.63;12.87;;;8.10;99.90;;;;;;10379803;28;20249;-75
2022/01/02 05:35:24;;;;;;;17.17;13.00;;;8.10;99.90;;;;;;10387240;28;20230;-75
2022/01/02 05:40:30;;;;;;;14.70;11.70;;;8.00;99.90;;;;;;10397094;28;20230;-75
2022/01/02 05:45:32;;;;;;;17.53;13.03;;;8.00;99.90;;;;;;10392552;28;20240;-75
2022/01/02 05:50:33;;;;;;;16.20;12.40;;;7.90;99.90;;;;;;10383281;28;20214;-76
2022/01/02 05:55:42;;;;;;;16.77;12.30;;;7.90;99.90;;;;;;10397916;28;20223;-74
2022/01/02 06:00:43;;;;;;;19.33;12.87;;;7.90;99.90;;;;;;10384061;28;20240;-74
2022/01/02 06:05:43;;;;;;;18.97;13.07;;;7.90;99.90;;;;;;10374615;28;20214;-75
2022/01/02 06:10:44;;;;;;;14.43;11.70;;;7.90;99.90;;;;;;10381235;28;20222;-74
2022/01/02 06:15:44;;;;;;;18.23;13.10;;;7.90;99.90;;;;;;10384037;28;20222;-74
2022/01/02 06:20:45;;;;;;;16.83;12.20;;;7.80;99.90;;;;;;10395601;28;20226;-74
2022/01/02 06:25:46;;;;;;;16.43;11.63;;;7.80;99.90;;;;;;10402490;28;20216;-74
2022/01/02 06:30:47;;;;;;;16.67;12.37;;;7.70;99.90;;;;;;10380571;28;20215;-75
2022/01/02 06:35:49;;;;;;;15.23;12.17;;;7.80;99.90;;;;;;10380991;28;20715;-75
2022/01/02 06:40:50;;;;;;;15.53;12.17;;;7.80;99.90;;;;;;10405600;28;20256;-74
2022/01/02 06:45:51;;;;;;;17.10;12.47;;;7.80;99.90;;;;;;10400782;28;20222;-75
2022/01/02 06:50:51;;;;;;;18.63;11.87;;;7.80;99.90;;;;;;10405053;28;20216;-76
2022/01/02 06:55:52;;;;;;;14.33;11.03;;;7.80;99.90;;;;;;10405550;28;20606;-77
2022/01/02 07:00:53;;;;;;;15.00;11.63;;;7.80;99.90;;;;;;10409909;28;20224;-76
2022/01/02 07:05:53;;;;;;;16.87;12.00;;;7.80;99.90;;;;;;10391806;28;20288;-76
2022/01/02 07:10:55;;;;;;;16.87;12.47;;;7.70;99.90;;;;;;10390071;28;20308;-75
2022/01/02 07:15:55;;;;;;;17.17;11.90;;;7.70;99.90;;;;;;10394552;28;20225;-78
2022/01/02 07:20:56;;;;;;;15.10;10.93;;;7.70;99.90;;;;;;10404432;28;20242;-76
2022/01/02 07:25:56;;;;;;;17.47;11.70;;;7.80;99.90;;;;;;10399072;28;20601;-74
2022/01/02 07:30:57;;;;;;;12.97;10.53;;;7.90;99.90;;;;;;10384505;28;20222;-75
2022/01/02 07:35:57;;;;;;;13.67;10.93;;;8.00;99.90;;;;;;10395822;28;20218;-78
2022/01/02 07:40:59;;;;;;;15.13;10.60;;;8.10;99.90;;;;;;10389467;28;20302;-75
2022/01/02 07:45:59;;;;;;;15.10;10.40;;;8.10;99.90;;;;;;10408885;28;20241;-76
2022/01/02 07:51:00;;;;;;;16.27;10.77;;;8.20;99.90;;;;;;10377587;28;20229;-74
2022/01/02 07:56:00;;;;;;;11.13;9.60;;;8.30;99.90;;;;;;10397989;28;20316;-76
2022/01/02 08:01:01;;;;;;;11.10;9.17;;;8.50;99.90;;;;;;10376852;28;20306;-75
2022/01/02 08:06:02;;;;;;;12.97;9.27;;;8.60;99.90;;;;;;10401223;28;20700;-74
2022/01/02 08:11:02;;;;;;;10.30;8.97;;;8.80;99.90;;;;;;10400442;28;20305;-75
2022/01/02 08:16:03;;;;;;;10.00;8.30;;;8.90;99.90;;;;;;10412698;28;20230;-76
2022/01/02 08:21:04;;;;;;;10.57;8.73;;;9.00;99.90;;;;;;10392094;28;20236;-77
2022/01/02 08:26:05;;;;;;;11.70;8.40;;;9.00;99.90;;;;;;10400186;28;20284;-77
2022/01/02 08:31:05;;;;;;;9.70;7.93;;;9.00;99.90;;;;;;10396954;28;20747;-75
2022/01/02 08:36:06;;;;;;;11.43;8.50;;;9.10;99.90;;;;;;10390240;28;20658;-76
2022/01/02 08:41:07;;;;;;;12.33;8.47;;;9.20;99.90;;;;;;10389333;28;20307;-75
2022/01/02 08:46:12;;;;;;;10.67;8.27;;;9.20;99.90;;;;;;10406162;28;20224;-76
2022/01/02 08:51:12;;;;;;;11.87;8.37;;;9.30;99.90;;;;;;10390710;28;20496;-74
2022/01/02 08:56:14;;;;;;;12.40;8.10;;;9.30;99.90;;;;;;10398642;28;20644;-76
2022/01/02 09:01:15;;;;;;;8.67;7.43;;;9.40;99.90;;;;;;10396121;28;20222;-75
2022/01/02 09:06:18;;;;;;;9.10;7.20;;;9.40;99.90;;;;;;10396429;28;20252;-74
2022/01/02 09:11:19;;;;;;;10.53;7.30;;;9.40;99.90;;;;;;10393928;28;20231;-74
2022/01/02 09:16:19;;;;;;;13.83;8.13;;;9.60;99.90;;;;;;10389968;28;20223;-75
2022/01/02 09:21:20;;;;;;;10.17;6.87;;;9.90;99.90;;;;;;10392548;28;20228;-76
2022/01/02 09:26:21;;;;;;;8.53;6.90;;;10.20;99.90;;;;;;10404088;28;20226;-74
2022/01/02 09:31:22;;;;;;;8.50;7.30;;;10.40;99.90;;;;;;10393235;28;20255;-75
2022/01/02 09:36:23;;;;;;;9.03;7.30;;;10.70;99.90;;;;;;10387699;28;20816;-77
2022/01/02 09:41:23;;;;;;;10.13;6.80;;;10.80;99.90;;;;;;10402858;28;20327;-76
2022/01/02 09:46:28;;;;;;;9.07;6.90;;;10.70;99.90;;;;;;10397895;28;20223;-76
2022/01/02 09:51:28;;;;;;;8.80;6.87;;;10.60;99.90;;;;;;10387349;28;20331;-75
2022/01/02 09:56:29;;;;;;;8.30;6.70;;;10.50;99.90;;;;;;10399481;28;20217;-74
2022/01/02 10:01:32;;;;;;;8.77;6.63;;;10.40;99.90;;;;;;10403460;28;20233;-75
2022/01/02 10:06:46;;;;;;;7.50;6.43;;;10.40;99.90;;;;;;10397594;28;20254;-75
2022/01/02 10:11:47;;;;;;;9.00;6.70;;;10.50;99.90;;;;;;10390561;28;20588;-75
2022/01/02 10:16:47;;;;;;;9.00;6.67;;;10.60;99.90;;;;;;10400561;28;20221;-75
2022/01/02 10:22:00;;;;;;;12.73;7.60;;;10.50;99.90;;;;;;10402252;28;20233;-76
2022/01/02 10:27:15;;;;;;;9.53;6.90;;;10.40;99.90;;;;;;10397147;28;20229;-74
2022/01/02 10:32:41;;;;;;;10.13;7.70;;;10.30;99.90;;;;;;10400704;28;20292;-74
2022/01/02 10:37:48;;;;;;;11.07;6.50;;;10.20;99.90;;;;;;10395837;28;20217;-75
2022/01/02 10:42:49;;;;;;;7.80;6.20;;;10.20;99.90;;;;;;10393914;28;20248;-74
2022/01/02 10:47:50;;;;;;;8.90;6.07;;;10.20;99.90;;;;;;10392350;28;20242;-74
2022/01/02 10:52:51;;;;;;;9.03;6.10;;;10.20;99.90;;;;;;10400567;28;20218;-75
2022/01/02 10:57:54;;;;;;;6.73;5.40;;;10.10;99.90;;;;;;10399519;28;20610;-75
2022/01/02 11:02:54;;;;;;;6.70;5.57;;;10.20;99.90;;;;;;10398236;28;20215;-75
2022/01/02 11:08:00;;;;;;;6.20;5.00;;;10.30;99.90;;;;;;10383486;28;20217;-75
2022/01/02 11:13:03;;;;;;;5.90;4.80;;;10.40;99.90;;;;;;10403588;28;20280;-74
2022/01/02 11:18:07;;;;;;;5.33;4.73;;;10.50;99.90;;;;;;10392032;28;20226;-75
2022/01/02 11:23:15;;;;;;;6.87;4.30;;;10.50;99.90;;;;;;10391445;28;20229;-75
2022/01/02 11:28:39;;;;;;;6.37;4.30;;;10.60;99.90;;;;;;10391022;28;20637;-75
2022/01/02 11:33:41;;;;;;;4.27;3.87;;;10.70;99.90;;;;;;10395125;28;20240;-76
2022/01/02 11:38:43;;;;;;;7.93;5.00;;;10.70;99.90;;;;;;10392533;28;20242;-74
2022/01/02 11:43:51;;;;;;;5.80;4.33;;;10.80;99.90;;;;;;10400590;28;20277;-75
2022/01/02 11:49:04;;;;;;;11.70;4.50;;;10.70;99.90;;;;;;10402140;28;20237;-76
2022/01/02 11:54:04;;;;;;;7.47;4.40;;;10.70;99.90;;;;;;10398177;28;20209;-77
2022/01/02 11:59:05;;;;;;;6.57;4.30;;;10.80;99.90;;;;;;10393369;28;20234;-78
2022/01/02 12:04:06;;;;;;;4.50;4.03;;;10.70;99.90;;;;;;10402146;28;20626;-75
2022/01/02 12:09:33;;;;;;;5.70;4.23;;;10.70;99.90;;;;;;10398555;28;20222;-75
2022/01/02 12:14:57;;;;;;;7.67;4.00;;;10.80;99.90;;;;;;10386297;28;20226;-80
2022/01/02 12:20:02;;;;;;;4.77;4.00;;;10.90;99.90;;;;;;10397771;28;20226;-78
2022/01/02 12:25:17;;;;;;;5.63;4.10;;;11.00;99.90;;;;;;10429814;28;20297;-74
2022/01/02 12:30:20;;;;;;;6.23;4.20;;;11.20;99.90;;;;;;10449157;28;20248;-77
2022/01/02 12:35:21;;;;;;;6.27;4.60;;;11.30;99.90;;;;;;10434272;28;20192;-77
2022/01/02 12:40:22;;;;;;;7.80;4.90;;;11.40;99.90;;;;;;10437532;28;20207;-76
2022/01/02 12:45:23;;;;;;;7.93;5.30;;;11.40;99.90;;;;;;10436591;28;20641;-77
2022/01/02 12:50:29;;;;;;;5.40;4.90;;;11.20;99.90;;;;;;10435545;28;20242;-77
2022/01/02 12:55:30;;;;;;;5.50;4.53;;;11.00;99.90;;;;;;10435923;28;20210;-76
2022/01/02 13:00:31;;;;;;;6.77;4.67;;;10.80;99.90;;;;;;10425490;28;20230;-76
2022/01/02 13:05:32;;;;;;;7.10;5.17;;;10.80;99.90;;;;;;10436016;28;20240;-77
2022/01/02 13:10:33;;;;;;;9.87;4.97;;;10.90;99.90;;;;;;10439387;28;20229;-78
2022/01/02 13:15:33;;;;;;;6.70;4.70;;;11.00;99.90;;;;;;10432098;28;20289;-76
2022/01/02 13:20:41;;;;;;;9.30;5.00;;;11.10;99.90;;;;;;10435780;28;20252;-76
2022/01/02 13:25:45;;;;;;;5.33;4.27;;;11.10;99.90;;;;;;10435313;28;20392;-77
2022/01/02 13:30:49;;;;;;;6.83;4.47;;;11.20;99.90;;;;;;10432975;28;20226;-76
2022/01/02 13:35:52;;;;;;;5.63;4.27;;;11.30;99.90;;;;;;10441689;28;20218;-77
2022/01/02 13:40:53;;;;;;;6.20;4.13;;;11.20;99.90;;;;;;10430691;28;20305;-76
2022/01/02 13:45:58;;;;;;;6.97;4.60;;;11.10;99.90;;;;;;10447225;28;20332;-76
2022/01/02 13:50:59;;;;;;;7.13;4.50;;;11.10;99.90;;;;;;10434397;28;20300;-77
2022/01/02 13:56:11;;;;;;;5.20;4.30;;;11.30;99.90;;;;;;10419154;28;20213;-77
2022/01/02 14:01:18;;;;;;;8.03;4.10;;;11.50;99.90;;;;;;10426712;28;20229;-77
2022/01/02 14:06:30;;;;;;;7.53;4.33;;;11.60;99.90;;;;;;10424847;28;20222;-77
2022/01/02 14:11:31;;;;;;;4.73;3.90;;;11.60;99.90;;;;;;10437860;28;20217;-76
2022/01/02 14:22:03;;;;;;;7.07;3.90;;;11.60;99.90;;;;;;10429958;28;20291;-76
2022/01/02 14:27:06;;;;;;;7.17;3.93;;;11.60;99.90;;;;;;10439554;28;20222;-77
2022/01/02 14:32:09;;;;;;;6.57;3.80;;;11.60;99.90;;;;;;10442240;28;20245;-77
2022/01/02 14:37:12;;;;;;;4.77;3.60;;;11.60;99.90;;;;;;10411894;28;20251;-77
2022/01/02 14:42:13;;;;;;;5.07;3.10;;;11.70;99.90;;;;;;10396514;28;20217;-76
2022/01/02 14:47:14;;;;;;;4.70;2.97;;;11.70;99.90;;;;;;10407677;28;20286;-76
2022/01/02 14:52:15;;;;;;;6.67;3.27;;;11.80;99.90;;;;;;10397827;28;20684;-78
2022/01/02 14:57:15;;;;;;;3.30;2.80;;;11.80;99.90;;;;;;10403775;28;20228;-77
2022/01/02 15:02:21;;;;;;;6.20;3.37;;;11.80;99.90;;;;;;10409324;28;20227;-78
2022/01/02 15:07:26;;;;;;;5.83;3.20;;;11.80;99.90;;;;;;10402742;28;20230;-73
2022/01/02 15:12:26;;;;;;;6.93;3.40;;;11.80;99.90;;;;;;10398090;28;20224;-74
2022/01/02 15:17:27;;;;;;;6.63;3.03;;;11.80;99.90;;;;;;10406170;28;20238;-76
2022/01/02 15:22:28;;;;;;;6.20;2.97;;;11.80;99.90;;;;;;10401117;28;20226;-77
2022/01/02 15:27:29;;;;;;;4.37;3.47;;;11.70;99.90;;;;;;10398833;28;20241;-76
2022/01/02 15:32:34;;;;;;;4.83;3.10;;;11.70;99.90;;;;;;10394108;28;20265;-79
2022/01/02 15:42:43;;;;;;;4.50;3.47;;;11.50;99.90;;;;;;10431849;28;20283;-79
2022/01/02 15:47:49;;;;;;;6.43;2.80;;;11.50;99.90;;;;;;10411653;28;20229;-79
2022/01/02 15:58:00;;;;;;;4.80;3.00;;;11.50;99.90;;;;;;10421906;28;21009;-79
2022/01/02 17:03:18;;;;;;;3.17;2.87;;;11.70;99.90;;;;;;10407805;28;20245;-79
2022/01/02 17:08:24;;;;;;;6.30;3.20;;;11.70;99.90;;;;;;10470589;28;20251;-79
2022/01/02 17:18:56;;;;;;;;;;;;;;;;;;;;;
2022/01/02 17:23:59;;;;;;;5.20;2.80;;;11.80;99.90;;;;;;10474836;22;20244;-79
2022/01/02 17:45:54;;;;;;;7.23;3.20;;;11.90;99.90;;;;;;6845914;26;20887;-80
2022/01/02 17:50:55;;;;;;;7.07;2.73;;;11.90;99.90;;;;;;10354936;28;20290;-76
2022/01/02 17:55:58;;;;;;;5.20;2.97;;;11.90;99.90;;;;;;10358071;28;20299;-76
2022/01/02 18:06:13;;;;;;;7.30;3.20;;;11.90;99.90;;;;;;10374713;28;20667;-77
2022/01/02 18:16:29;;;;;;;6.10;2.90;;;12.00;99.90;;;;;;10399889;28;20261;-76
2022/01/02 18:21:40;;;;;;;7.87;2.90;;;11.90;99.90;;;;;;10409288;28;20320;-77
2022/01/02 18:42:14;;;;;;;6.43;2.57;;;12.00;99.90;;;;;;10419210;28;20241;-77
2022/01/02 19:13:33;;;;;;;6.27;2.53;;;12.00;99.90;;;;;;10416382;28;20236;-77
2022/01/02 20:34:22;;;;;;;;;;;;;;;;;;;;;
2022/01/02 21:46:54;;;;;;;5.47;2.10;;;12.40;99.90;;;;;;12863893;23;20202;-79
2022/01/02 21:52:50;;;;;;;6.63;2.43;;;12.40;99.90;;;;;;12857961;22;20169;-80
2022/01/02 21:59:14;;;;;;;;;;;;;;;;;;;;;
2022/01/02 22:21:29;;;;;;;6.90;2.77;;;12.40;99.90;;;;;;12946977;22;20189;-81
2022/01/02 22:43:20;;;;;;;5.93;2.20;;;12.20;99.90;;;;;;12772313;23;20193;-78
2022/01/02 22:48:52;;;;;;;6.10;2.20;;;12.20;99.90;;;;;;12781615;23;20272;-79
2022/01/02 22:53:52;;;;;;;5.23;2.10;;;12.10;99.90;;;;;;12772092;23;20199;-76
2022/01/02 22:58:58;;;;;;;7.63;2.57;;;12.10;99.90;;;;;;12766892;23;20296;-72
2022/01/02 23:04:12;;;;;;;8.13;2.40;;;12.20;99.90;;;;;;12793654;23;20207;-76
2022/01/02 23:09:21;;;;;;;4.00;1.83;;;12.30;99.90;;;;;;12770825;23;20201;-79
2022/01/02 23:15:34;;;;;;;;;;;;;;;;;;;;;
2022/01/02 23:21:15;;;;;;;7.97;2.57;;;12.20;99.90;;;;;;12747559;23;21768;-79
2022/01/02 23:27:48;;;;;;;;;;;;;;;;;;;;;
2022/01/02 23:33:30;;;;;;;6.63;1.90;;;12.20;99.90;;;;;;12640232;23;20162;-80
2022/01/02 23:39:10;;;;;;;4.90;2.27;;;12.20;99.90;;;;;;12821135;23;20221;-81
2022/01/02 23:44:38;;;;;;;8.87;2.50;;;12.20;99.90;;;;;;12824887;23;20206;-79
2022/01/02 23:50:26;;;;;;;13.37;2.63;;;12.00;99.90;;;;;;12840761;23;20192;-79
2022/01/02 23:55:57;;;;;;;10.73;2.77;;;11.70;99.90;;;;;;12844226;23;20204;-78
